sensor_id;sensor_type;location;lat;lon;timestamp;pressure;altitude;pressure_sealevel;temperature;humidity
72585;BME280;60618;40.084;32.908;2022-08-30T00:01:27;89533.44;;;23.34;51.19
72585;BME280;60618;40.084;32.908;2022-08-30T00:03:54;89530.38;;;23.30;51.37
72585;BME280;60618;40.084;32.908;2022-08-30T00:06:22;89528.75;;;23.27;51.74
72585;BME280;60618;40.084;32.908;2022-08-30T00:08:49;89523.84;;;23.33;51.67
72585;BME280;60618;40.084;32.908;2022-08-30T00:11:20;89529.28;;;23.33;51.70
72585;BME280;60618;40.084;32.908;2022-08-30T00:13:48;89518.22;;;23.31;52.01
72585;BME280;60618;40.084;32.908;2022-08-30T00:16:17;89516.81;;;23.22;51.93
72585;BME280;60618;40.084;32.908;2022-08-30T00:18:45;89501.66;;;23.12;51.93
72585;BME280;60618;40.084;32.908;2022-08-30T00:21:12;89512.53;;;23.12;52.45
72585;BME280;60618;40.084;32.908;2022-08-30T00:23:40;89524.63;;;23.18;52.29
72585;BME280;60618;40.084;32.908;2022-08-30T00:26:07;89514.13;;;23.15;52.43
72585;BME280;60618;40.084;32.908;2022-08-30T00:28:34;89515.56;;;23.16;52.37
72585;BME280;60618;40.084;32.908;2022-08-30T00:31:02;89519.41;;;23.13;52.50
72585;BME280;60618;40.084;32.908;2022-08-30T00:33:29;89520.84;;;23.14;52.56
72585;BME280;60618;40.084;32.908;2022-08-30T00:35:57;89515.41;;;23.14;52.77
72585;BME280;60618;40.084;32.908;2022-08-30T00:38:25;89517.44;;;23.06;52.72
72585;BME280;60618;40.084;32.908;2022-08-30T00:40:52;89514.19;;;23.00;52.99
72585;BME280;60618;40.084;32.908;2022-08-30T00:43:22;89515.81;;;23.03;53.09
72585;BME280;60618;40.084;32.908;2022-08-30T00:45:53;89519.81;;;23.02;52.84
72585;BME280;60618;40.084;32.908;2022-08-30T00:48:21;89518.72;;;22.97;53.55
72585;BME280;60618;40.084;32.908;2022-08-30T00:50:55;89508.28;;;22.86;53.14
72585;BME280;60618;40.084;32.908;2022-08-30T00:53:29;89524.34;;;22.91;53.42
72585;BME280;60618;40.084;32.908;2022-08-30T00:55:58;89525.63;;;22.90;53.59
72585;BME280;60618;40.084;32.908;2022-08-30T00:58:29;89527.47;;;22.88;53.25
72585;BME280;60618;40.084;32.908;2022-08-30T01:00:59;89519.31;;;22.88;53.77
72585;BME280;60618;40.084;32.908;2022-08-30T01:03:27;89521.84;;;22.86;53.56
72585;BME280;60618;40.084;32.908;2022-08-30T01:05:56;89525.13;;;22.84;53.76
72585;BME280;60618;40.084;32.908;2022-08-30T01:08:23;89518.59;;;22.87;53.42
72585;BME280;60618;40.084;32.908;2022-08-30T01:10:51;89520.59;;;22.87;53.56
72585;BME280;60618;40.084;32.908;2022-08-30T01:13:21;89523.84;;;22.85;54.12
72585;BME280;60618;40.084;32.908;2022-08-30T01:15:48;89522.41;;;22.84;54.25
72585;BME280;60618;40.084;32.908;2022-08-30T01:18:17;89522.00;;;22.80;53.71
72585;BME280;60618;40.084;32.908;2022-08-30T01:21:10;89510.97;;;22.78;53.79
72585;BME280;60618;40.084;32.908;2022-08-30T01:23:42;89511.88;;;22.73;54.12
72585;BME280;60618;40.084;32.908;2022-08-30T01:26:12;89512.63;;;22.74;54.67
72585;BME280;60618;40.084;32.908;2022-08-30T01:28:42;89513.16;;;22.72;54.31
72585;BME280;60618;40.084;32.908;2022-08-30T01:31:12;89491.13;;;22.53;54.45
72585;BME280;60618;40.084;32.908;2022-08-30T01:33:39;89502.88;;;22.63;54.97
72585;BME280;60618;40.084;32.908;2022-08-30T01:36:10;89503.25;;;22.59;54.86
72585;BME280;60618;40.084;32.908;2022-08-30T01:38:52;89507.25;;;22.58;55.17
72585;BME280;60618;40.084;32.908;2022-08-30T01:41:33;89497.13;;;22.51;55.31
72585;BME280;60618;40.084;32.908;2022-08-30T01:44:04;89507.59;;;22.55;55.25
72585;BME280;60618;40.084;32.908;2022-08-30T01:46:35;89505.44;;;22.53;55.56
72585;BME280;60618;40.084;32.908;2022-08-30T01:49:10;89505.09;;;22.49;55.72
72585;BME280;60618;40.084;32.908;2022-08-30T01:51:37;89509.44;;;22.45;55.58
72585;BME280;60618;40.084;32.908;2022-08-30T01:54:04;89509.25;;;22.43;55.81
72585;BME280;60618;40.084;32.908;2022-08-30T01:56:32;89504.19;;;22.47;55.55
72585;BME280;60618;40.084;32.908;2022-08-30T01:58:59;89505.09;;;22.42;55.98
72585;BME280;60618;40.084;32.908;2022-08-30T02:01:32;89498.78;;;22.39;55.96
72585;BME280;60618;40.084;32.908;2022-08-30T02:03:59;89505.28;;;22.44;56.04
72585;BME280;60618;40.084;32.908;2022-08-30T02:06:27;89515.94;;;22.49;55.71
72585;BME280;60618;40.084;32.908;2022-08-30T02:08:54;89502.22;;;22.40;55.99
72585;BME280;60618;40.084;32.908;2022-08-30T02:11:21;89504.72;;;22.37;56.18
72585;BME280;60618;40.084;32.908;2022-08-30T02:13:48;89506.19;;;22.31;55.95
72585;BME280;60618;40.084;32.908;2022-08-30T02:16:18;89505.47;;;22.30;56.23
72585;BME280;60618;40.084;32.908;2022-08-30T02:18:45;89498.63;;;22.29;56.29
72585;BME280;60618;40.084;32.908;2022-08-30T02:21:12;89505.66;;;22.32;56.88
72585;BME280;60618;40.084;32.908;2022-08-30T02:23:39;89501.13;;;22.27;56.56
72585;BME280;60618;40.084;32.908;2022-08-30T02:26:07;89510.53;;;22.26;56.73
72585;BME280;60618;40.084;32.908;2022-08-30T02:28:35;89499.50;;;22.24;56.96
72585;BME280;60618;40.084;32.908;2022-08-30T02:31:16;89492.28;;;22.19;56.95
72585;BME280;60618;40.084;32.908;2022-08-30T02:33:51;89498.25;;;22.25;56.99
72585;BME280;60618;40.084;32.908;2022-08-30T02:36:19;89504.75;;;22.22;56.87
72585;BME280;60618;40.084;32.908;2022-08-30T02:38:48;89497.53;;;22.17;57.24
72585;BME280;60618;40.084;32.908;2022-08-30T02:41:16;89500.41;;;22.19;57.30
72585;BME280;60618;40.084;32.908;2022-08-30T02:43:43;89503.16;;;22.12;57.54
72585;BME280;60618;40.084;32.908;2022-08-30T02:46:11;89498.06;;;22.08;57.57
72585;BME280;60618;40.084;32.908;2022-08-30T02:48:38;89506.94;;;22.08;58.11
72585;BME280;60618;40.084;32.908;2022-08-30T02:51:08;89500.59;;;22.06;57.89
72585;BME280;60618;40.084;32.908;2022-08-30T02:53:38;89500.59;;;22.06;57.74
72585;BME280;60618;40.084;32.908;2022-08-30T02:56:05;89506.00;;;22.06;57.91
72585;BME280;60618;40.084;32.908;2022-08-30T02:58:32;89489.94;;;21.93;58.04
72585;BME280;60618;40.084;32.908;2022-08-30T03:00:59;89515.25;;;22.03;57.94
72585;BME280;60618;40.084;32.908;2022-08-30T03:03:26;89510.88;;;22.00;57.95
72585;BME280;60618;40.084;32.908;2022-08-30T03:05:53;89510.88;;;22.00;57.93
72585;BME280;60618;40.084;32.908;2022-08-30T03:08:20;89509.28;;;21.97;58.09
72585;BME280;60618;40.084;32.908;2022-08-30T03:10:47;89518.50;;;21.94;58.07
72585;BME280;60618;40.084;32.908;2022-08-30T03:13:14;89517.22;;;21.95;58.21
72585;BME280;60618;40.084;32.908;2022-08-30T03:15:42;89519.94;;;21.95;58.23
72585;BME280;60618;40.084;32.908;2022-08-30T03:18:08;89512.69;;;21.97;58.24
72585;BME280;60618;40.084;32.908;2022-08-30T03:20:35;89517.06;;;21.93;58.18
72585;BME280;60618;40.084;32.908;2022-08-30T03:23:02;89519.75;;;21.93;58.25
72585;BME280;60618;40.084;32.908;2022-08-30T03:25:29;89518.28;;;21.92;58.23
72585;BME280;60618;40.084;32.908;2022-08-30T03:27:56;89517.06;;;21.93;58.20
72585;BME280;60618;40.084;32.908;2022-08-30T03:30:23;89524.09;;;21.96;58.15
72585;BME280;60618;40.084;32.908;2022-08-30T03:32:50;89512.69;;;22.05;57.89
72585;BME280;60618;40.084;32.908;2022-08-30T03:35:17;89508.53;;;22.04;57.77
72585;BME280;60618;40.084;32.908;2022-08-30T03:37:45;89519.94;;;22.18;57.23
72585;BME280;60618;40.084;32.908;2022-08-30T03:40:15;89521.38;;;22.26;56.79
72585;BME280;60618;40.084;32.908;2022-08-30T03:42:45;89523.38;;;22.33;56.66
72585;BME280;60618;40.084;32.908;2022-08-30T03:45:15;89528.97;;;22.43;56.54
72585;BME280;60618;40.084;32.908;2022-08-30T03:47:42;89539.81;;;22.51;56.45
72585;BME280;60618;40.084;32.908;2022-08-30T03:50:11;89534.00;;;22.62;55.80
72585;BME280;60618;40.084;32.908;2022-08-30T03:52:38;89536.16;;;22.71;55.62
72585;BME280;60618;40.084;32.908;2022-08-30T03:55:06;89539.75;;;22.81;55.24
72585;BME280;60618;40.084;32.908;2022-08-30T03:57:33;89543.72;;;22.96;55.08
72585;BME280;60618;40.084;32.908;2022-08-30T04:00:03;89540.44;;;23.05;54.69
72585;BME280;60618;40.084;32.908;2022-08-30T04:02:30;89525.25;;;23.02;54.63
72585;BME280;60618;40.084;32.908;2022-08-30T04:04:57;89545.81;;;23.28;54.39
72585;BME280;60618;40.084;32.908;2022-08-30T04:07:24;89541.59;;;23.34;54.26
72585;BME280;60618;40.084;32.908;2022-08-30T04:09:51;89546.63;;;23.45;54.12
72585;BME280;60618;40.084;32.908;2022-08-30T04:12:18;89548.91;;;23.57;53.60
72585;BME280;60618;40.084;32.908;2022-08-30T04:14:48;89551.25;;;23.68;53.59
72585;BME280;60618;40.084;32.908;2022-08-30T04:17:15;89544.44;;;23.84;53.22
72585;BME280;60618;40.084;32.908;2022-08-30T04:19:42;89549.78;;;23.99;52.93
72585;BME280;60618;40.084;32.908;2022-08-30T04:22:09;89539.91;;;24.12;52.41
72585;BME280;60618;40.084;32.908;2022-08-30T04:24:36;89538.41;;;24.18;52.25
72585;BME280;60618;40.084;32.908;2022-08-30T04:27:03;89546.66;;;24.28;52.28
72585;BME280;60618;40.084;32.908;2022-08-30T04:29:30;89552.56;;;24.42;51.99
72585;BME280;60618;40.084;32.908;2022-08-30T04:31:59;89544.34;;;24.49;51.85
72585;BME280;60618;40.084;32.908;2022-08-30T04:34:26;89552.94;;;24.63;51.74
72585;BME280;60618;40.084;32.908;2022-08-30T04:36:53;89544.69;;;24.71;51.17
72585;BME280;60618;40.084;32.908;2022-08-30T04:39:21;89554.16;;;24.87;50.94
72585;BME280;60618;40.084;32.908;2022-08-30T04:41:48;89557.69;;;24.97;50.56
72585;BME280;60618;40.084;32.908;2022-08-30T04:44:14;89557.78;;;25.07;50.37
72585;BME280;60618;40.084;32.908;2022-08-30T04:46:45;89555.47;;;25.21;50.63
72585;BME280;60618;40.084;32.908;2022-08-30T04:49:12;89546.94;;;25.34;49.97
72585;BME280;60618;40.084;32.908;2022-08-30T04:51:39;89538.09;;;25.43;49.28
72585;BME280;60618;40.084;32.908;2022-08-30T04:54:06;89544.81;;;25.59;49.50
72585;BME280;60618;40.084;32.908;2022-08-30T04:56:33;89545.44;;;25.67;48.94
72585;BME280;60618;40.084;32.908;2022-08-30T04:59:01;89545.28;;;25.83;49.03
72585;BME280;60618;40.084;32.908;2022-08-30T05:01:30;89549.06;;;25.97;48.62
72585;BME280;60618;40.084;32.908;2022-08-30T05:04:10;89548.84;;;26.12;48.02
72585;BME280;60618;40.084;32.908;2022-08-30T05:06:37;89549.22;;;26.26;47.91
72585;BME280;60618;40.084;32.908;2022-08-30T05:09:04;89540.31;;;26.35;47.59
72585;BME280;60618;40.084;32.908;2022-08-30T05:11:31;89541.25;;;26.47;46.75
72585;BME280;60618;40.084;32.908;2022-08-30T05:13:58;89541.25;;;26.57;46.85
72585;BME280;60618;40.084;32.908;2022-08-30T05:16:25;89545.75;;;26.62;46.95
72585;BME280;60618;40.084;32.908;2022-08-30T05:18:52;89544.47;;;26.73;46.58
72585;BME280;60618;40.084;32.908;2022-08-30T05:21:22;89547.06;;;26.80;46.25
72585;BME280;60618;40.084;32.908;2022-08-30T05:23:52;89543.63;;;26.90;46.09
72585;BME280;60618;40.084;32.908;2022-08-30T05:26:22;89542.94;;;26.99;45.84
72585;BME280;60618;40.084;32.908;2022-08-30T05:28:51;89543.38;;;27.05;45.51
72585;BME280;60618;40.084;32.908;2022-08-30T05:31:24;89545.13;;;27.10;45.55
72585;BME280;60618;40.084;32.908;2022-08-30T05:33:53;89541.97;;;27.23;44.88
72585;BME280;60618;40.084;32.908;2022-08-30T05:36:23;89542.53;;;27.31;44.80
72585;BME280;60618;40.084;32.908;2022-08-30T05:38:50;89548.44;;;27.37;44.86
72585;BME280;60618;40.084;32.908;2022-08-30T05:41:20;89546.97;;;27.46;44.87
72585;BME280;60618;40.084;32.908;2022-08-30T05:43:48;89534.47;;;27.53;44.04
72585;BME280;60618;40.084;32.908;2022-08-30T05:46:15;89532.56;;;27.65;44.44
72585;BME280;60618;40.084;32.908;2022-08-30T05:48:42;89544.22;;;27.75;44.16
72585;BME280;60618;40.084;32.908;2022-08-30T05:51:11;89539.44;;;27.85;43.79
72585;BME280;60618;40.084;32.908;2022-08-30T05:53:39;89535.84;;;27.92;43.38
72585;BME280;60618;40.084;32.908;2022-08-30T05:56:10;89534.38;;;28.01;42.73
72585;BME280;60618;40.084;32.908;2022-08-30T05:58:38;89543.72;;;28.08;43.29
72585;BME280;60618;40.084;32.908;2022-08-30T06:01:05;89542.97;;;28.17;42.63
72585;BME280;60618;40.084;32.908;2022-08-30T06:03:33;89535.59;;;28.19;42.44
72585;BME280;60618;40.084;32.908;2022-08-30T06:06:00;89543.53;;;28.25;42.42
72585;BME280;60618;40.084;32.908;2022-08-30T06:08:27;89530.25;;;28.21;42.25
72585;BME280;60618;40.084;32.908;2022-08-30T06:10:54;89537.88;;;28.42;41.81
72585;BME280;60618;40.084;32.908;2022-08-30T06:13:21;89531.06;;;28.43;40.67
72585;BME280;60618;40.084;32.908;2022-08-30T06:15:47;89535.88;;;28.64;41.06
72585;BME280;60618;40.084;32.908;2022-08-30T06:18:15;89542.59;;;28.73;40.43
72585;BME280;60618;40.084;32.908;2022-08-30T06:20:45;89544.31;;;28.78;40.61
72585;BME280;60618;40.084;32.908;2022-08-30T06:23:15;89541.25;;;28.83;40.14
72585;BME280;60618;40.084;32.908;2022-08-30T06:25:43;89543.94;;;28.93;39.72
72585;BME280;60618;40.084;32.908;2022-08-30T06:28:10;89535.09;;;29.04;39.80
72585;BME280;60618;40.084;32.908;2022-08-30T06:30:40;89541.94;;;29.15;39.60
72585;BME280;60618;40.084;32.908;2022-08-30T06:33:07;89545.44;;;29.27;39.00
72585;BME280;60618;40.084;32.908;2022-08-30T06:35:35;89543.94;;;29.36;38.71
72585;BME280;60618;40.084;32.908;2022-08-30T06:38:22;89542.91;;;29.41;39.14
72585;BME280;60618;40.084;32.908;2022-08-30T06:40:49;89544.88;;;29.50;39.24
72585;BME280;60618;40.084;32.908;2022-08-30T06:43:16;89538.47;;;29.57;37.63
72585;BME280;60618;40.084;32.908;2022-08-30T06:45:43;89534.31;;;29.68;38.79
72585;BME280;60618;40.084;32.908;2022-08-30T06:48:10;89540.09;;;29.84;38.11
72585;BME280;60618;40.084;32.908;2022-08-30T06:50:36;89536.28;;;29.89;37.54
72585;BME280;60618;40.084;32.908;2022-08-30T06:53:03;89540.16;;;30.07;37.28
72585;BME280;60618;40.084;32.908;2022-08-30T06:55:30;89531.81;;;30.17;37.22
72585;BME280;60618;40.084;32.908;2022-08-30T06:58:01;89537.34;;;30.29;37.09
72585;BME280;60618;40.084;32.908;2022-08-30T07:00:28;89540.44;;;30.35;36.97
72585;BME280;60618;40.084;32.908;2022-08-30T07:02:55;89539.72;;;30.46;36.63
72585;BME280;60618;40.084;32.908;2022-08-30T07:05:22;89543.09;;;30.56;36.64
72585;BME280;60618;40.084;32.908;2022-08-30T07:07:50;89533.31;;;30.65;36.57
72585;BME280;60618;40.084;32.908;2022-08-30T07:10:17;89544.66;;;30.71;35.34
72585;BME280;60618;40.084;32.908;2022-08-30T07:12:44;89541.66;;;30.78;35.89
72585;BME280;60618;40.084;32.908;2022-08-30T07:15:12;89547.88;;;30.91;35.52
72585;BME280;60618;40.084;32.908;2022-08-30T07:17:39;89542.84;;;30.99;35.24
72585;BME280;60618;40.084;32.908;2022-08-30T07:20:06;89540.22;;;31.01;35.56
72585;BME280;60618;40.084;32.908;2022-08-30T07:22:33;89538.41;;;31.05;35.07
72585;BME280;60618;40.084;32.908;2022-08-30T07:25:00;89536.94;;;31.16;34.81
72585;BME280;60618;40.084;32.908;2022-08-30T07:27:27;89540.81;;;31.11;34.63
72585;BME280;60618;40.084;32.908;2022-08-30T07:29:54;89533.00;;;31.19;34.63
72585;BME280;60618;40.084;32.908;2022-08-30T07:32:21;89534.44;;;31.20;34.71
72585;BME280;60618;40.084;32.908;2022-08-30T07:34:48;89535.63;;;31.29;34.50
72585;BME280;60618;40.084;32.908;2022-08-30T07:37:17;89538.25;;;31.39;34.34
72585;BME280;60618;40.084;32.908;2022-08-30T07:39:44;89536.53;;;31.45;34.00
72585;BME280;60618;40.084;32.908;2022-08-30T07:42:14;89538.19;;;31.50;33.92
72585;BME280;60618;40.084;32.908;2022-08-30T07:44:41;89530.03;;;31.52;34.00
72585;BME280;60618;40.084;32.908;2022-08-30T07:47:09;89531.81;;;31.59;33.43
72585;BME280;60618;40.084;32.908;2022-08-30T07:49:36;89521.63;;;31.62;33.92
72585;BME280;60618;40.084;32.908;2022-08-30T07:52:03;89536.06;;;31.74;33.64
72585;BME280;60618;40.084;32.908;2022-08-30T07:54:30;89536.06;;;31.74;33.47
72585;BME280;60618;40.084;32.908;2022-08-30T07:56:57;89542.53;;;31.79;33.65
72585;BME280;60618;40.084;32.908;2022-08-30T07:59:24;89535.44;;;31.87;33.38
72585;BME280;60618;40.084;32.908;2022-08-30T08:01:51;89529.22;;;31.87;33.70
72585;BME280;60618;40.084;32.908;2022-08-30T08:04:18;89529.66;;;31.95;32.75
72585;BME280;60618;40.084;32.908;2022-08-30T08:06:45;89536.09;;;32.00;32.97
72585;BME280;60618;40.084;32.908;2022-08-30T08:09:12;89530.47;;;31.98;32.74
72585;BME280;60618;40.084;32.908;2022-08-30T08:11:39;89522.53;;;32.04;32.39
72585;BME280;60618;40.084;32.908;2022-08-30T08:14:06;89531.94;;;32.12;32.30
72585;BME280;60618;40.084;32.908;2022-08-30T08:16:35;89522.34;;;32.13;32.54
72585;BME280;60618;40.084;32.908;2022-08-30T08:19:03;89510.81;;;32.17;32.23
72585;BME280;60618;40.084;32.908;2022-08-30T08:21:30;89521.34;;;32.20;31.82
72585;BME280;60618;40.084;32.908;2022-08-30T08:23:57;89514.69;;;32.12;30.70
72585;BME280;60618;40.084;32.908;2022-08-30T08:26:24;89514.47;;;32.08;31.16
72585;BME280;60618;40.084;32.908;2022-08-30T08:28:51;89515.63;;;32.16;31.67
72585;BME280;60618;40.084;32.908;2022-08-30T08:31:24;89506.75;;;32.18;31.19
72585;BME280;60618;40.084;32.908;2022-08-30T08:33:59;89502.38;;;32.27;31.17
72585;BME280;60618;40.084;32.908;2022-08-30T08:36:32;89496.81;;;32.38;31.40
72585;BME280;60618;40.084;32.908;2022-08-30T08:38:59;89503.84;;;32.41;30.88
72585;BME280;60618;40.084;32.908;2022-08-30T08:47:13;89485.88;;;32.40;30.54
72585;BME280;60618;40.084;32.908;2022-08-30T08:49:43;89491.50;;;32.42;28.99
72585;BME280;60618;40.084;32.908;2022-08-30T08:52:19;89491.19;;;32.50;30.33
72585;BME280;60618;40.084;32.908;2022-08-30T08:54:59;89495.31;;;32.63;29.92
72585;BME280;60618;40.084;32.908;2022-08-30T08:57:35;89491.00;;;32.73;29.93
72585;BME280;60618;40.084;32.908;2022-08-30T09:00:06;89493.16;;;32.75;29.99
72585;BME280;60618;40.084;32.908;2022-08-30T09:03:02;89488.38;;;32.89;29.49
72585;BME280;60618;40.084;32.908;2022-08-30T09:05:37;89495.50;;;32.81;28.05
72585;BME280;60618;40.084;32.908;2022-08-30T09:08:08;89496.31;;;32.69;27.38
72585;BME280;60618;40.084;32.908;2022-08-30T09:10:37;89488.03;;;32.69;28.20
72585;BME280;60618;40.084;32.908;2022-08-30T09:13:17;89481.91;;;32.71;28.26
72585;BME280;60618;40.084;32.908;2022-08-30T09:15:45;89483.34;;;32.72;27.80
72585;BME280;60618;40.084;32.908;2022-08-30T09:18:17;89480.47;;;32.70;27.08
72585;BME280;60618;40.084;32.908;2022-08-30T09:21:06;89477.63;;;32.68;27.59
72585;BME280;60618;40.084;32.908;2022-08-30T09:23:33;89473.13;;;32.61;27.80
72585;BME280;60618;40.084;32.908;2022-08-30T09:26:04;89468.53;;;32.65;28.62
72585;BME280;60618;40.084;32.908;2022-08-30T09:28:34;89471.91;;;32.64;26.87
72585;BME280;60618;40.084;32.908;2022-08-30T09:31:27;89477.44;;;32.64;27.08
72585;BME280;60618;40.084;32.908;2022-08-30T09:34:08;89477.63;;;32.68;26.68
72585;BME280;60618;40.084;32.908;2022-08-30T09:36:49;89468.72;;;32.69;27.17
72585;BME280;60618;40.084;32.908;2022-08-30T09:39:25;89474.25;;;32.83;26.67
72585;BME280;60618;40.084;32.908;2022-08-30T09:41:53;89471.50;;;32.83;26.77
72585;BME280;60618;40.084;32.908;2022-08-30T09:44:37;89470.19;;;32.84;26.88
72585;BME280;60618;40.084;32.908;2022-08-30T09:47:04;89472.69;;;32.80;26.99
72585;BME280;60618;40.084;32.908;2022-08-30T09:49:49;89459.66;;;32.81;27.75
72585;BME280;60618;40.084;32.908;2022-08-30T09:52:36;89464.66;;;32.84;26.80
72585;BME280;60618;40.084;32.908;2022-08-30T10:01:32;89462.81;;;32.75;25.10
72585;BME280;60618;40.084;32.908;2022-08-30T10:03:50;89461.66;;;32.80;26.14
72585;BME280;60618;40.084;32.908;2022-08-30T10:06:27;89454.72;;;32.79;25.51
72585;BME280;60618;40.084;32.908;2022-08-30T10:12:07;89462.50;;;32.96;25.57
72585;BME280;60618;40.084;32.908;2022-08-30T10:15:06;89455.56;;;32.82;24.78
72585;BME280;60618;40.084;32.908;2022-08-30T10:23:46;89447.59;;;32.74;25.46
72585;BME280;60618;40.084;32.908;2022-08-30T10:29:00;89446.06;;;32.85;25.23
72585;BME280;60618;40.084;32.908;2022-08-30T10:31:41;89447.78;;;32.92;24.63
72585;BME280;60618;40.084;32.908;2022-08-30T10:34:15;89447.28;;;32.82;24.77
72585;BME280;60618;40.084;32.908;2022-08-30T10:36:49;89434.06;;;32.80;24.19
72585;BME280;60618;40.084;32.908;2022-08-30T10:39:23;89434.31;;;32.84;24.44
72585;BME280;60618;40.084;32.908;2022-08-30T10:42:08;89432.28;;;32.85;24.88
72585;BME280;60618;40.084;32.908;2022-08-30T10:44:40;89435.22;;;32.89;25.35
72585;BME280;60618;40.084;32.908;2022-08-30T10:49:40;89436.22;;;32.95;24.33
72585;BME280;60618;40.084;32.908;2022-08-30T10:52:30;89433.78;;;33.01;24.85
72585;BME280;60618;40.084;32.908;2022-08-30T10:55:05;89425.28;;;32.97;24.14
72585;BME280;60618;40.084;32.908;2022-08-30T10:57:33;89428.66;;;32.96;24.17
72585;BME280;60618;40.084;32.908;2022-08-30T11:00:05;89415.09;;;32.86;24.28
72585;BME280;60618;40.084;32.908;2022-08-30T11:06:16;89430.50;;;33.05;24.11
72585;BME280;60618;40.084;32.908;2022-08-30T11:14:44;89400.56;;;32.99;24.41
72585;BME280;60618;40.084;32.908;2022-08-30T11:19:49;89407.47;;;33.14;23.30
72585;BME280;60618;40.084;32.908;2022-08-30T11:22:30;89383.91;;;32.97;23.36
72585;BME280;60618;40.084;32.908;2022-08-30T11:25:11;89401.78;;;32.96;23.50
72585;BME280;60618;40.084;32.908;2022-08-30T11:27:51;89392.00;;;32.93;23.15
72585;BME280;60618;40.084;32.908;2022-08-30T11:40:46;89376.25;;;32.82;23.31
72585;BME280;60618;40.084;32.908;2022-08-30T11:46:20;89382.69;;;32.87;23.42
72585;BME280;60618;40.084;32.908;2022-08-30T11:55:24;89364.97;;;33.06;23.26
72585;BME280;60618;40.084;32.908;2022-08-30T11:58:27;89365.34;;;33.14;24.00
72585;BME280;60618;40.084;32.908;2022-08-30T12:11:53;89352.88;;;33.13;21.79
72585;BME280;60618;40.084;32.908;2022-08-30T12:14:43;89352.50;;;33.04;20.27
72585;BME280;60618;40.084;32.908;2022-08-30T12:17:29;89354.53;;;33.04;20.82
72585;BME280;60618;40.084;32.908;2022-08-30T12:19:57;89338.44;;;32.98;21.06
72585;BME280;60618;40.084;32.908;2022-08-30T12:22:25;89339.50;;;33.07;22.09
72585;BME280;60618;40.084;32.908;2022-08-30T12:24:52;89328.84;;;33.15;21.15
72585;BME280;60618;40.084;32.908;2022-08-30T12:27:29;89334.72;;;33.23;21.35
72585;BME280;60618;40.084;32.908;2022-08-30T12:30:03;89349.63;;;33.32;21.28
72585;BME280;60618;40.084;32.908;2022-08-30T12:32:31;89334.88;;;33.41;20.96
72585;BME280;60618;40.084;32.908;2022-08-30T12:35:05;89334.38;;;33.45;20.23
72585;BME280;60618;40.084;32.908;2022-08-30T12:37:36;89329.97;;;33.40;20.38
72585;BME280;60618;40.084;32.908;2022-08-30T12:40:19;89322.31;;;33.38;20.92
72585;BME280;60618;40.084;32.908;2022-08-30T12:43:20;89330.28;;;33.32;19.65
72585;BME280;60618;40.084;32.908;2022-08-30T12:45:50;89326.56;;;33.25;19.60
72585;BME280;60618;40.084;32.908;2022-08-30T12:48:20;89327.28;;;33.26;20.04
72585;BME280;60618;40.084;32.908;2022-08-30T12:50:52;89330.13;;;33.28;19.95
72585;BME280;60618;40.084;32.908;2022-08-30T12:53:40;89324.16;;;33.33;20.49
72585;BME280;60618;40.084;32.908;2022-08-30T12:56:11;89309.16;;;33.37;19.93
72585;BME280;60618;40.084;32.908;2022-08-30T13:06:40;89310.59;;;33.24;19.93
72585;BME280;60618;40.084;32.908;2022-08-30T13:09:10;89307.66;;;33.20;19.43
72585;BME280;60618;40.084;32.908;2022-08-30T13:11:48;89302.56;;;33.14;18.73
72585;BME280;60618;40.084;32.908;2022-08-30T13:17:24;89301.59;;;33.08;19.11
72585;BME280;60618;40.084;32.908;2022-08-30T13:20:02;89293.50;;;33.12;19.80
72585;BME280;60618;40.084;32.908;2022-08-30T13:22:35;89283.63;;;33.22;19.51
72585;BME280;60618;40.084;32.908;2022-08-30T13:25:04;89297.50;;;33.24;18.38
72585;BME280;60618;40.084;32.908;2022-08-30T13:27:34;89296.63;;;33.20;19.25
72585;BME280;60618;40.084;32.908;2022-08-30T13:30:11;89289.75;;;33.21;19.39
72585;BME280;60618;40.084;32.908;2022-08-30T13:32:39;89278.34;;;33.13;18.25
72585;BME280;60618;40.084;32.908;2022-08-30T13:35:07;89284.78;;;33.17;18.73
72585;BME280;60618;40.084;32.908;2022-08-30T13:37:35;89290.81;;;33.14;18.93
72585;BME280;60618;40.084;32.908;2022-08-30T13:40:18;89283.59;;;33.07;17.86
72585;BME280;60618;40.084;32.908;2022-08-30T13:42:45;89280.66;;;33.02;18.55
72585;BME280;60618;40.084;32.908;2022-08-30T13:45:14;89284.47;;;32.95;18.84
72585;BME280;60618;40.084;32.908;2022-08-30T13:48:01;89280.69;;;32.89;18.95
72585;BME280;60618;40.084;32.908;2022-08-30T13:50:29;89284.00;;;32.85;18.98
72585;BME280;60618;40.084;32.908;2022-08-30T13:52:56;89278.88;;;32.80;18.82
72585;BME280;60618;40.084;32.908;2022-08-30T13:55:23;89273.09;;;32.73;18.74
72585;BME280;60618;40.084;32.908;2022-08-30T13:57:51;89272.78;;;32.67;18.17
72585;BME280;60618;40.084;32.908;2022-08-30T14:00:20;89280.16;;;32.63;17.51
72585;BME280;60618;40.084;32.908;2022-08-30T14:02:48;89276.16;;;32.66;17.54
72585;BME280;60618;40.084;32.908;2022-08-30T14:05:29;89272.06;;;32.67;16.86
72585;BME280;60618;40.084;32.908;2022-08-30T14:08:17;89268.84;;;32.57;15.50
72585;BME280;60618;40.084;32.908;2022-08-30T14:11:04;89273.81;;;32.60;15.21
72585;BME280;60618;40.084;32.908;2022-08-30T14:13:31;89268.84;;;32.57;14.73
72585;BME280;60618;40.084;32.908;2022-08-30T14:16:01;89260.47;;;32.55;15.04
72585;BME280;60618;40.084;32.908;2022-08-30T14:18:50;89252.09;;;32.53;14.67
72585;BME280;60618;40.084;32.908;2022-08-30T14:21:19;89246.47;;;32.51;14.86
72585;BME280;60618;40.084;32.908;2022-08-30T14:23:50;89253.72;;;32.58;15.42
72585;BME280;60618;40.084;32.908;2022-08-30T14:26:22;89253.31;;;32.63;13.94
72585;BME280;60618;40.084;32.908;2022-08-30T14:28:55;89253.72;;;32.58;13.64